sensor_id;sensor_type;location;lat;lon;timestamp;P1;durP1;ratioP1;P2;durP2;ratioP2
19965;SDS011;10144;50.874;4.762;2023-06-04T00:00:42;2.05;;;0.90;;
19965;SDS011;10144;50.874;4.762;2023-06-04T00:03:09;3.47;;;1.20;;
19965;SDS011;10144;50.874;4.762;2023-06-04T00:05:36;2.97;;;1.20;;
19965;SDS011;10144;50.874;4.762;2023-06-04T00:10:37;4.82;;;1.25;;
19965;SDS011;10144;50.874;4.762;2023-06-04T00:15:49;3.25;;;1.20;;
19965;SDS011;10144;50.874;4.762;2023-06-04T00:18:24;2.05;;;1.10;;
19965;SDS011;10144;50.874;4.762;2023-06-04T00:20:53;3.45;;;1.00;;
19965;SDS011;10144;50.874;4.762;2023-06-04T00:23:19;1.95;;;1.08;;
19965;SDS011;10144;50.874;4.762;2023-06-04T00:25:50;2.28;;;1.25;;
19965;SDS011;10144;50.874;4.762;2023-06-04T00:36:52;2.90;;;1.23;;
19965;SDS011;10144;50.874;4.762;2023-06-04T00:39:19;2.92;;;1.35;;
19965;SDS011;10144;50.874;4.762;2023-06-04T00:41:53;4.03;;;1.23;;
19965;SDS011;10144;50.874;4.762;2023-06-04T00:44:27;2.88;;;1.35;;
19965;SDS011;10144;50.874;4.762;2023-06-04T00:49:29;2.78;;;1.13;;
19965;SDS011;10144;50.874;4.762;2023-06-04T00:51:55;2.15;;;1.02;;
19965;SDS011;10144;50.874;4.762;2023-06-04T00:57:22;5.45;;;1.40;;
19965;SDS011;10144;50.874;4.762;2023-06-04T00:59:51;2.20;;;1.23;;
19965;SDS011;10144;50.874;4.762;2023-06-04T01:08:19;3.50;;;1.20;;
19965;SDS011;10144;50.874;4.762;2023-06-04T01:11:00;2.60;;;1.10;;
19965;SDS011;10144;50.874;4.762;2023-06-04T01:16:17;4.50;;;1.50;;
19965;SDS011;10144;50.874;4.762;2023-06-04T01:24:53;5.97;;;1.67;;
19965;SDS011;10144;50.874;4.762;2023-06-04T01:30:21;4.45;;;1.30;;
19965;SDS011;10144;50.874;4.762;2023-06-04T01:32:56;3.47;;;1.45;;
19965;SDS011;10144;50.874;4.762;2023-06-04T01:41:31;2.55;;;1.35;;
19965;SDS011;10144;50.874;4.762;2023-06-04T01:46:29;3.37;;;1.40;;
19965;SDS011;10144;50.874;4.762;2023-06-04T01:52:30;3.80;;;1.27;;
19965;SDS011;10144;50.874;4.762;2023-06-04T01:54:57;2.97;;;1.40;;
19965;SDS011;10144;50.874;4.762;2023-06-04T01:57:26;3.97;;;1.70;;
19965;SDS011;10144;50.874;4.762;2023-06-04T01:59:55;4.53;;;1.47;;
19965;SDS011;10144;50.874;4.762;2023-06-04T02:02:24;4.93;;;1.60;;
19965;SDS011;10144;50.874;4.762;2023-06-04T02:04:55;3.83;;;1.80;;
19965;SDS011;10144;50.874;4.762;2023-06-04T02:13:30;4.70;;;1.90;;
19965;SDS011;10144;50.874;4.762;2023-06-04T02:15:59;2.93;;;1.60;;
19965;SDS011;10144;50.874;4.762;2023-06-04T02:18:27;4.27;;;1.57;;
19965;SDS011;10144;50.874;4.762;2023-06-04T02:20:56;8.30;;;1.90;;
19965;SDS011;10144;50.874;4.762;2023-06-04T02:23:25;4.83;;;2.00;;
19965;SDS011;10144;50.874;4.762;2023-06-04T02:28:55;4.27;;;1.93;;
19965;SDS011;10144;50.874;4.762;2023-06-04T02:31:23;5.27;;;1.90;;
19965;SDS011;10144;50.874;4.762;2023-06-04T02:36:41;4.77;;;2.10;;
19965;SDS011;10144;50.874;4.762;2023-06-04T02:39:13;4.63;;;2.20;;
19965;SDS011;10144;50.874;4.762;2023-06-04T02:41:39;5.70;;;2.07;;
19965;SDS011;10144;50.874;4.762;2023-06-04T02:47:27;6.20;;;2.30;;
19965;SDS011;10144;50.874;4.762;2023-06-04T02:59:30;4.17;;;2.07;;
19965;SDS011;10144;50.874;4.762;2023-06-04T03:02:03;5.33;;;2.13;;
19965;SDS011;10144;50.874;4.762;2023-06-04T03:07:52;4.33;;;2.30;;
19965;SDS011;10144;50.874;4.762;2023-06-04T03:13:40;4.73;;;1.93;;
19965;SDS011;10144;50.874;4.762;2023-06-04T03:19:28;5.47;;;2.23;;
19965;SDS011;10144;50.874;4.762;2023-06-04T03:28:46;3.63;;;2.07;;
19965;SDS011;10144;50.874;4.762;2023-06-04T03:34:30;5.90;;;1.90;;
19965;SDS011;10144;50.874;4.762;2023-06-04T03:37:05;4.00;;;2.00;;
19965;SDS011;10144;50.874;4.762;2023-06-04T03:42:03;5.40;;;2.10;;
19965;SDS011;10144;50.874;4.762;2023-06-04T03:44:30;5.47;;;2.03;;
19965;SDS011;10144;50.874;4.762;2023-06-04T03:47:03;7.77;;;2.40;;
19965;SDS011;10144;50.874;4.762;2023-06-04T03:49:30;5.13;;;2.37;;
19965;SDS011;10144;50.874;4.762;2023-06-04T03:52:11;13.20;;;2.80;;
19965;SDS011;10144;50.874;4.762;2023-06-04T03:54:41;5.80;;;2.40;;
19965;SDS011;10144;50.874;4.762;2023-06-04T04:00:29;4.03;;;2.10;;
19965;SDS011;10144;50.874;4.762;2023-06-04T04:06:17;5.03;;;2.00;;
19965;SDS011;10144;50.874;4.762;2023-06-04T04:12:05;4.17;;;2.07;;
19965;SDS011;10144;50.874;4.762;2023-06-04T04:17:54;5.47;;;2.10;;
19965;SDS011;10144;50.874;4.762;2023-06-04T04:23:44;5.93;;;2.13;;
19965;SDS011;10144;50.874;4.762;2023-06-04T04:29:32;3.97;;;2.00;;
19965;SDS011;10144;50.874;4.762;2023-06-04T04:35:21;4.77;;;2.20;;
19965;SDS011;10144;50.874;4.762;2023-06-04T04:41:11;5.80;;;2.40;;
19965;SDS011;10144;50.874;4.762;2023-06-04T04:46:59;5.05;;;2.20;;
19965;SDS011;10144;50.874;4.762;2023-06-04T04:52:47;4.20;;;2.08;;
19965;SDS011;10144;50.874;4.762;2023-06-04T05:01:21;4.53;;;1.92;;
19965;SDS011;10144;50.874;4.762;2023-06-04T05:07:09;6.22;;;2.13;;
19965;SDS011;10144;50.874;4.762;2023-06-04T05:12:57;5.13;;;2.38;;
19965;SDS011;10144;50.874;4.762;2023-06-04T05:20:59;6.43;;;2.08;;
19965;SDS011;10144;50.874;4.762;2023-06-04T05:29:48;4.57;;;2.20;;
19965;SDS011;10144;50.874;4.762;2023-06-04T05:35:36;3.55;;;1.98;;
19965;SDS011;10144;50.874;4.762;2023-06-04T05:41:28;6.13;;;2.00;;
19965;SDS011;10144;50.874;4.762;2023-06-04T05:47:16;4.82;;;2.08;;
19965;SDS011;10144;50.874;4.762;2023-06-04T05:53:05;5.90;;;2.10;;
19965;SDS011;10144;50.874;4.762;2023-06-04T05:58:53;5.15;;;2.00;;
19965;SDS011;10144;50.874;4.762;2023-06-04T06:01:30;3.63;;;2.00;;
19965;SDS011;10144;50.874;4.762;2023-06-04T06:07:18;3.55;;;2.33;;
19965;SDS011;10144;50.874;4.762;2023-06-04T06:13:06;5.18;;;2.20;;
19965;SDS011;10144;50.874;4.762;2023-06-04T06:18:03;4.68;;;1.67;;
19965;SDS011;10144;50.874;4.762;2023-06-04T06:20:46;4.55;;;2.05;;
19965;SDS011;10144;50.874;4.762;2023-06-04T06:26:34;4.57;;;2.53;;
19965;SDS011;10144;50.874;4.762;2023-06-04T06:32:22;3.65;;;2.13;;
19965;SDS011;10144;50.874;4.762;2023-06-04T06:44:39;4.00;;;1.92;;
19965;SDS011;10144;50.874;4.762;2023-06-04T06:50:27;4.68;;;1.90;;
19965;SDS011;10144;50.874;4.762;2023-06-04T06:56:16;7.63;;;2.30;;
19965;SDS011;10144;50.874;4.762;2023-06-04T07:02:05;4.95;;;2.05;;
19965;SDS011;10144;50.874;4.762;2023-06-04T07:07:53;3.97;;;2.08;;
19965;SDS011;10144;50.874;4.762;2023-06-04T07:13:41;5.13;;;1.90;;
19965;SDS011;10144;50.874;4.762;2023-06-04T07:19:29;3.28;;;2.03;;
19965;SDS011;10144;50.874;4.762;2023-06-04T07:25:16;3.42;;;1.67;;
19965;SDS011;10144;50.874;4.762;2023-06-04T07:31:04;5.18;;;2.05;;
19965;SDS011;10144;50.874;4.762;2023-06-04T07:36:55;4.50;;;1.80;;
19965;SDS011;10144;50.874;4.762;2023-06-04T07:42:45;4.85;;;1.90;;
19965;SDS011;10144;50.874;4.762;2023-06-04T07:55:23;6.28;;;1.80;;
19965;SDS011;10144;50.874;4.762;2023-06-04T07:57:51;4.35;;;1.58;;
19965;SDS011;10144;50.874;4.762;2023-06-04T08:00:18;4.90;;;1.83;;
19965;SDS011;10144;50.874;4.762;2023-06-04T08:02:45;3.40;;;1.60;;
19965;SDS011;10144;50.874;4.762;2023-06-04T08:05:12;4.28;;;2.10;;
19965;SDS011;10144;50.874;4.762;2023-06-04T08:07:42;3.97;;;1.60;;
19965;SDS011;10144;50.874;4.762;2023-06-04T08:10:14;4.03;;;1.83;;
19965;SDS011;10144;50.874;4.762;2023-06-04T08:12:43;4.35;;;1.67;;
19965;SDS011;10144;50.874;4.762;2023-06-04T08:18:30;4.15;;;1.88;;
19965;SDS011;10144;50.874;4.762;2023-06-04T08:20:57;5.88;;;1.80;;
19965;SDS011;10144;50.874;4.762;2023-06-04T08:23:23;4.57;;;1.60;;
19965;SDS011;10144;50.874;4.762;2023-06-04T08:25:50;5.90;;;1.83;;
19965;SDS011;10144;50.874;4.762;2023-06-04T08:28:19;5.93;;;1.80;;
19965;SDS011;10144;50.874;4.762;2023-06-04T08:33:32;3.38;;;1.63;;
19965;SDS011;10144;50.874;4.762;2023-06-04T08:35:57;3.60;;;1.95;;
19965;SDS011;10144;50.874;4.762;2023-06-04T08:38:23;2.33;;;1.70;;
19965;SDS011;10144;50.874;4.762;2023-06-04T08:40:49;2.97;;;1.92;;
19965;SDS011;10144;50.874;4.762;2023-06-04T08:43:19;5.03;;;1.83;;
19965;SDS011;10144;50.874;4.762;2023-06-04T08:45:46;3.33;;;1.88;;
19965;SDS011;10144;50.874;4.762;2023-06-04T08:48:17;4.43;;;1.92;;
19965;SDS011;10144;50.874;4.762;2023-06-04T08:53:29;6.18;;;1.88;;
19965;SDS011;10144;50.874;4.762;2023-06-04T08:55:55;4.97;;;1.73;;
19965;SDS011;10144;50.874;4.762;2023-06-04T08:58:22;6.55;;;2.08;;
19965;SDS011;10144;50.874;4.762;2023-06-04T09:00:49;5.10;;;1.75;;
19965;SDS011;10144;50.874;4.762;2023-06-04T09:03:21;4.60;;;1.80;;
19965;SDS011;10144;50.874;4.762;2023-06-04T09:05:55;3.97;;;1.80;;
19965;SDS011;10144;50.874;4.762;2023-06-04T09:08:21;3.63;;;2.00;;
19965;SDS011;10144;50.874;4.762;2023-06-04T09:10:50;4.30;;;1.90;;
19965;SDS011;10144;50.874;4.762;2023-06-04T09:13:21;3.08;;;1.83;;
19965;SDS011;10144;50.874;4.762;2023-06-04T09:16:00;5.88;;;1.90;;
19965;SDS011;10144;50.874;4.762;2023-06-04T09:18:31;6.32;;;2.20;;
19965;SDS011;10144;50.874;4.762;2023-06-04T09:21:07;3.67;;;1.65;;
19965;SDS011;10144;50.874;4.762;2023-06-04T09:23:46;3.33;;;2.10;;
19965;SDS011;10144;50.874;4.762;2023-06-04T09:26:13;2.58;;;1.90;;
19965;SDS011;10144;50.874;4.762;2023-06-04T09:28:39;4.30;;;1.80;;
19965;SDS011;10144;50.874;4.762;2023-06-04T09:31:07;3.05;;;1.98;;
19965;SDS011;10144;50.874;4.762;2023-06-04T09:33:49;3.15;;;1.90;;
19965;SDS011;10144;50.874;4.762;2023-06-04T09:36:15;2.80;;;2.00;;
19965;SDS011;10144;50.874;4.762;2023-06-04T09:38:41;3.35;;;1.92;;
19965;SDS011;10144;50.874;4.762;2023-06-04T09:41:16;4.32;;;1.88;;
19965;SDS011;10144;50.874;4.762;2023-06-04T09:43:47;5.07;;;2.08;;
19965;SDS011;10144;50.874;4.762;2023-06-04T09:46:14;3.83;;;1.98;;
19965;SDS011;10144;50.874;4.762;2023-06-04T09:48:41;3.03;;;1.65;;
19965;SDS011;10144;50.874;4.762;2023-06-04T09:51:12;3.00;;;1.60;;
19965;SDS011;10144;50.874;4.762;2023-06-04T09:53:40;5.72;;;1.95;;
19965;SDS011;10144;50.874;4.762;2023-06-04T09:56:06;3.10;;;1.67;;
19965;SDS011;10144;50.874;4.762;2023-06-04T09:58:33;3.50;;;1.80;;
19965;SDS011;10144;50.874;4.762;2023-06-04T10:01:01;3.47;;;1.52;;
19965;SDS011;10144;50.874;4.762;2023-06-04T10:03:33;2.42;;;1.65;;
19965;SDS011;10144;50.874;4.762;2023-06-04T10:06:02;2.85;;;1.60;;
19965;SDS011;10144;50.874;4.762;2023-06-04T10:08:30;5.00;;;1.58;;
19965;SDS011;10144;50.874;4.762;2023-06-04T10:10:58;3.88;;;1.63;;
19965;SDS011;10144;50.874;4.762;2023-06-04T10:13:27;6.72;;;1.50;;
19965;SDS011;10144;50.874;4.762;2023-06-04T10:15:58;3.05;;;1.48;;
19965;SDS011;10144;50.874;4.762;2023-06-04T10:18:26;2.70;;;1.48;;
19965;SDS011;10144;50.874;4.762;2023-06-04T10:20:56;3.45;;;1.60;;
19965;SDS011;10144;50.874;4.762;2023-06-04T10:23:23;2.78;;;1.33;;
19965;SDS011;10144;50.874;4.762;2023-06-04T10:25:49;2.47;;;1.20;;
19965;SDS011;10144;50.874;4.762;2023-06-04T10:28:18;3.38;;;1.50;;
19965;SDS011;10144;50.874;4.762;2023-06-04T10:30:47;2.88;;;1.40;;
19965;SDS011;10144;50.874;4.762;2023-06-04T10:33:15;7.50;;;1.58;;
19965;SDS011;10144;50.874;4.762;2023-06-04T10:35:45;4.05;;;1.50;;
19965;SDS011;10144;50.874;4.762;2023-06-04T10:38:12;6.18;;;1.58;;
19965;SDS011;10144;50.874;4.762;2023-06-04T10:40:39;2.72;;;1.30;;
19965;SDS011;10144;50.874;4.762;2023-06-04T10:43:08;3.88;;;1.48;;
19965;SDS011;10144;50.874;4.762;2023-06-04T10:45:38;3.67;;;1.60;;
19965;SDS011;10144;50.874;4.762;2023-06-04T10:48:08;3.05;;;1.48;;
19965;SDS011;10144;50.874;4.762;2023-06-04T10:50:47;2.28;;;1.52;;
19965;SDS011;10144;50.874;4.762;2023-06-04T10:53:13;5.03;;;1.92;;
19965;SDS011;10144;50.874;4.762;2023-06-04T10:55:46;2.13;;;1.55;;
19965;SDS011;10144;50.874;4.762;2023-06-04T10:58:13;2.33;;;1.55;;
19965;SDS011;10144;50.874;4.762;2023-06-04T11:00:42;2.33;;;1.80;;
19965;SDS011;10144;50.874;4.762;2023-06-04T11:03:11;3.45;;;1.73;;
19965;SDS011;10144;50.874;4.762;2023-06-04T11:05:44;3.92;;;1.80;;
19965;SDS011;10144;50.874;4.762;2023-06-04T11:08:11;6.07;;;1.90;;
19965;SDS011;10144;50.874;4.762;2023-06-04T11:10:41;4.72;;;1.60;;
19965;SDS011;10144;50.874;4.762;2023-06-04T11:13:09;3.03;;;1.75;;
19965;SDS011;10144;50.874;4.762;2023-06-04T11:15:41;4.53;;;1.65;;
19965;SDS011;10144;50.874;4.762;2023-06-04T11:18:08;4.45;;;1.58;;
19965;SDS011;10144;50.874;4.762;2023-06-04T11:20:38;2.50;;;1.42;;
19965;SDS011;10144;50.874;4.762;2023-06-04T11:23:04;2.60;;;1.38;;
19965;SDS011;10144;50.874;4.762;2023-06-04T11:25:31;5.32;;;1.80;;
19965;SDS011;10144;50.874;4.762;2023-06-04T11:28:00;3.10;;;1.92;;
19965;SDS011;10144;50.874;4.762;2023-06-04T11:30:28;3.83;;;1.50;;
19965;SDS011;10144;50.874;4.762;2023-06-04T11:33:05;3.72;;;1.50;;
19965;SDS011;10144;50.874;4.762;2023-06-04T11:35:31;3.47;;;1.73;;
19965;SDS011;10144;50.874;4.762;2023-06-04T11:38:05;6.88;;;1.60;;
19965;SDS011;10144;50.874;4.762;2023-06-04T11:40:30;4.45;;;1.55;;
19965;SDS011;10144;50.874;4.762;2023-06-04T11:42:56;3.80;;;1.65;;
19965;SDS011;10144;50.874;4.762;2023-06-04T11:45:22;2.10;;;1.30;;
19965;SDS011;10144;50.874;4.762;2023-06-04T11:47:51;3.22;;;1.50;;
19965;SDS011;10144;50.874;4.762;2023-06-04T11:50:21;3.55;;;1.73;;
19965;SDS011;10144;50.874;4.762;2023-06-04T11:52:48;3.83;;;1.40;;
19965;SDS011;10144;50.874;4.762;2023-06-04T11:55:15;5.15;;;1.70;;
19965;SDS011;10144;50.874;4.762;2023-06-04T11:57:45;2.83;;;1.42;;
19965;SDS011;10144;50.874;4.762;2023-06-04T12:00:12;2.55;;;1.40;;
19965;SDS011;10144;50.874;4.762;2023-06-04T12:02:48;4.75;;;1.60;;
19965;SDS011;10144;50.874;4.762;2023-06-04T12:05:16;3.03;;;1.55;;
19965;SDS011;10144;50.874;4.762;2023-06-04T12:07:47;14.82;;;1.73;;
19965;SDS011;10144;50.874;4.762;2023-06-04T12:10:15;3.03;;;1.45;;
19965;SDS011;10144;50.874;4.762;2023-06-04T12:12:45;3.95;;;1.73;;
19965;SDS011;10144;50.874;4.762;2023-06-04T12:15:12;3.45;;;1.45;;
19965;SDS011;10144;50.874;4.762;2023-06-04T12:17:51;3.22;;;1.50;;
19965;SDS011;10144;50.874;4.762;2023-06-04T12:20:18;6.10;;;1.90;;
19965;SDS011;10144;50.874;4.762;2023-06-04T12:22:56;3.05;;;1.58;;
19965;SDS011;10144;50.874;4.762;2023-06-04T12:25:26;2.78;;;1.63;;
19965;SDS011;10144;50.874;4.762;2023-06-04T12:27:53;4.15;;;1.80;;
19965;SDS011;10144;50.874;4.762;2023-06-04T12:30:21;5.95;;;1.60;;
19965;SDS011;10144;50.874;4.762;2023-06-04T12:32:47;3.03;;;1.75;;
19965;SDS011;10144;50.874;4.762;2023-06-04T12:35:13;2.83;;;1.60;;
19965;SDS011;10144;50.874;4.762;2023-06-04T12:37:41;2.25;;;1.38;;
19965;SDS011;10144;50.874;4.762;2023-06-04T12:40:07;3.03;;;1.60;;
19965;SDS011;10144;50.874;4.762;2023-06-04T12:42:34;2.83;;;1.40;;
19965;SDS011;10144;50.874;4.762;2023-06-04T12:45:00;2.38;;;1.60;;
19965;SDS011;10144;50.874;4.762;2023-06-04T12:47:26;2.60;;;1.58;;
19965;SDS011;10144;50.874;4.762;2023-06-04T12:49:51;3.65;;;1.60;;
19965;SDS011;10144;50.874;4.762;2023-06-04T12:52:17;3.90;;;1.80;;
19965;SDS011;10144;50.874;4.762;2023-06-04T12:54:43;3.70;;;1.63;;
19965;SDS011;10144;50.874;4.762;2023-06-04T12:57:09;4.25;;;1.67;;
19965;SDS011;10144;50.874;4.762;2023-06-04T12:59:35;2.88;;;1.63;;
19965;SDS011;10144;50.874;4.762;2023-06-04T13:02:00;3.65;;;1.50;;
19965;SDS011;10144;50.874;4.762;2023-06-04T13:04:26;5.70;;;2.70;;
19965;SDS011;10144;50.874;4.762;2023-06-04T13:06:52;5.15;;;3.58;;
19965;SDS011;10144;50.874;4.762;2023-06-04T13:09:20;9.18;;;3.08;;
19965;SDS011;10144;50.874;4.762;2023-06-04T13:11:48;12.60;;;3.70;;
19965;SDS011;10144;50.874;4.762;2023-06-04T13:14:14;2.65;;;1.40;;
19965;SDS011;10144;50.874;4.762;2023-06-04T13:16:40;6.75;;;2.45;;
19965;SDS011;10144;50.874;4.762;2023-06-04T13:19:06;4.18;;;2.35;;
19965;SDS011;10144;50.874;4.762;2023-06-04T13:21:32;3.97;;;2.58;;
19965;SDS011;10144;50.874;4.762;2023-06-04T13:23:58;2.85;;;1.65;;
19965;SDS011;10144;50.874;4.762;2023-06-04T13:26:24;3.70;;;2.28;;
19965;SDS011;10144;50.874;4.762;2023-06-04T13:28:50;2.90;;;1.70;;
19965;SDS011;10144;50.874;4.762;2023-06-04T13:31:16;4.20;;;1.52;;
19965;SDS011;10144;50.874;4.762;2023-06-04T13:33:42;4.15;;;1.70;;
19965;SDS011;10144;50.874;4.762;2023-06-04T13:36:08;4.18;;;1.40;;
19965;SDS011;10144;50.874;4.762;2023-06-04T13:38:33;3.97;;;2.17;;
19965;SDS011;10144;50.874;4.762;2023-06-04T13:40:59;3.72;;;2.40;;
19965;SDS011;10144;50.874;4.762;2023-06-04T13:43:25;3.08;;;1.70;;
19965;SDS011;10144;50.874;4.762;2023-06-04T13:45:51;4.15;;;1.50;;
19965;SDS011;10144;50.874;4.762;2023-06-04T13:48:16;3.22;;;1.73;;
19965;SDS011;10144;50.874;4.762;2023-06-04T13:50:43;4.10;;;2.58;;
19965;SDS011;10144;50.874;4.762;2023-06-04T13:53:08;4.50;;;1.70;;
19965;SDS011;10144;50.874;4.762;2023-06-04T13:55:34;3.42;;;2.10;;
19965;SDS011;10144;50.874;4.762;2023-06-04T13:58:00;3.22;;;1.98;;
19965;SDS011;10144;50.874;4.762;2023-06-04T14:00:26;5.15;;;2.25;;
19965;SDS011;10144;50.874;4.762;2023-06-04T14:02:52;2.97;;;1.67;;
19965;SDS011;10144;50.874;4.762;2023-06-04T14:05:20;3.15;;;1.60;;
19965;SDS011;10144;50.874;4.762;2023-06-04T14:07:45;3.95;;;1.58;;
19965;SDS011;10144;50.874;4.762;2023-06-04T14:10:11;2.17;;;1.33;;
19965;SDS011;10144;50.874;4.762;2023-06-04T14:12:37;2.83;;;1.50;;
19965;SDS011;10144;50.874;4.762;2023-06-04T14:15:07;3.70;;;1.42;;
19965;SDS011;10144;50.874;4.762;2023-06-04T14:17:34;1.73;;;1.30;;
19965;SDS011;10144;50.874;4.762;2023-06-04T14:20:00;3.20;;;1.60;;
19965;SDS011;10144;50.874;4.762;2023-06-04T14:22:32;5.20;;;1.60;;
19965;SDS011;10144;50.874;4.762;2023-06-04T14:25:02;2.95;;;1.20;;
19965;SDS011;10144;50.874;4.762;2023-06-04T14:27:31;4.97;;;1.52;;
19965;SDS011;10144;50.874;4.762;2023-06-04T14:29:58;3.55;;;1.52;;
19965;SDS011;10144;50.874;4.762;2023-06-04T14:32:23;2.55;;;1.40;;
19965;SDS011;10144;50.874;4.762;2023-06-04T14:34:49;2.05;;;1.35;;
19965;SDS011;10144;50.874;4.762;2023-06-04T14:37:15;3.08;;;1.42;;
19965;SDS011;10144;50.874;4.762;2023-06-04T14:39:41;2.78;;;1.30;;
19965;SDS011;10144;50.874;4.762;2023-06-04T14:42:06;4.90;;;1.40;;
19965;SDS011;10144;50.874;4.762;2023-06-04T14:44:32;2.70;;;1.27;;
19965;SDS011;10144;50.874;4.762;2023-06-04T14:46:58;4.18;;;1.40;;
19965;SDS011;10144;50.874;4.762;2023-06-04T14:49:23;2.85;;;1.50;;
19965;SDS011;10144;50.874;4.762;2023-06-04T14:51:49;3.42;;;1.50;;
19965;SDS011;10144;50.874;4.762;2023-06-04T14:54:15;3.15;;;1.40;;
19965;SDS011;10144;50.874;4.762;2023-06-04T14:56:41;3.28;;;1.50;;
19965;SDS011;10144;50.874;4.762;2023-06-04T14:59:06;4.03;;;1.27;;
19965;SDS011;10144;50.874;4.762;2023-06-04T15:01:36;6.28;;;1.27;;
19965;SDS011;10144;50.874;4.762;2023-06-04T15:04:03;3.35;;;1.58;;
19965;SDS011;10144;50.874;4.762;2023-06-04T15:06:30;2.83;;;1.80;;
19965;SDS011;10144;50.874;4.762;2023-06-04T15:09:02;2.30;;;1.30;;
19965;SDS011;10144;50.874;4.762;2023-06-04T15:11:28;1.67;;;1.27;;
19965;SDS011;10144;50.874;4.762;2023-06-04T15:13:54;3.30;;;1.50;;
19965;SDS011;10144;50.874;4.762;2023-06-04T15:16:21;2.63;;;1.33;;
19965;SDS011;10144;50.874;4.762;2023-06-04T15:18:47;2.97;;;1.45;;
19965;SDS011;10144;50.874;4.762;2023-06-04T15:21:13;4.00;;;1.40;;
19965;SDS011;10144;50.874;4.762;2023-06-04T15:23:38;2.33;;;1.42;;
19965;SDS011;10144;50.874;4.762;2023-06-04T15:26:05;4.25;;;1.30;;
19965;SDS011;10144;50.874;4.762;2023-06-04T15:28:31;2.05;;;1.25;;
19965;SDS011;10144;50.874;4.762;2023-06-04T15:30:56;2.90;;;1.58;;
19965;SDS011;10144;50.874;4.762;2023-06-04T15:33:22;2.03;;;1.55;;
19965;SDS011;10144;50.874;4.762;2023-06-04T15:35:48;4.57;;;1.40;;
19965;SDS011;10144;50.874;4.762;2023-06-04T15:38:13;3.63;;;1.45;;
19965;SDS011;10144;50.874;4.762;2023-06-04T15:40:40;2.03;;;1.20;;
19965;SDS011;10144;50.874;4.762;2023-06-04T15:43:06;2.10;;;1.40;;
19965;SDS011;10144;50.874;4.762;2023-06-04T15:45:31;2.85;;;1.20;;
19965;SDS011;10144;50.874;4.762;2023-06-04T15:47:57;2.72;;;1.40;;
19965;SDS011;10144;50.874;4.762;2023-06-04T15:50:22;2.72;;;1.48;;
19965;SDS011;10144;50.874;4.762;2023-06-04T15:52:48;2.38;;;1.40;;
19965;SDS011;10144;50.874;4.762;2023-06-04T15:55:14;2.92;;;1.20;;
19965;SDS011;10144;50.874;4.762;2023-06-04T15:57:40;2.05;;;1.25;;
19965;SDS011;10144;50.874;4.762;2023-06-04T16:00:06;2.00;;;1.30;;
19965;SDS011;10144;50.874;4.762;2023-06-04T16:02:33;5.78;;;1.42;;
19965;SDS011;10144;50.874;4.762;2023-06-04T16:04:58;3.60;;;1.30;;
19965;SDS011;10144;50.874;4.762;2023-06-04T16:07:24;3.63;;;1.85;;
19965;SDS011;10144;50.874;4.762;2023-06-04T16:09:50;3.85;;;2.10;;
19965;SDS011;10144;50.874;4.762;2023-06-04T16:12:15;3.50;;;1.45;;
19965;SDS011;10144;50.874;4.762;2023-06-04T16:14:41;2.78;;;1.40;;
19965;SDS011;10144;50.874;4.762;2023-06-04T16:17:06;2.55;;;1.60;;
19965;SDS011;10144;50.874;4.762;2023-06-04T16:19:32;2.22;;;1.38;;
19965;SDS011;10144;50.874;4.762;2023-06-04T16:21:58;3.75;;;1.50;;
19965;SDS011;10144;50.874;4.762;2023-06-04T16:24:23;2.08;;;1.00;;
19965;SDS011;10144;50.874;4.762;2023-06-04T16:26:49;5.72;;;1.80;;
19965;SDS011;10144;50.874;4.762;2023-06-04T16:29:15;2.88;;;1.50;;
19965;SDS011;10144;50.874;4.762;2023-06-04T16:31:41;2.25;;;1.40;;
19965;SDS011;10144;50.874;4.762;2023-06-04T16:34:06;2.63;;;1.48;;
19965;SDS011;10144;50.874;4.762;2023-06-04T16:36:32;3.05;;;1.40;;
19965;SDS011;10144;50.874;4.762;2023-06-04T16:38:58;5.00;;;1.60;;
19965;SDS011;10144;50.874;4.762;2023-06-04T16:41:24;5.18;;;1.58;;
19965;SDS011;10144;50.874;4.762;2023-06-04T16:43:51;3.30;;;1.42;;
19965;SDS011;10144;50.874;4.762;2023-06-04T16:46:17;3.03;;;1.35;;
19965;SDS011;10144;50.874;4.762;2023-06-04T16:48:42;2.53;;;1.48;;
19965;SDS011;10144;50.874;4.762;2023-06-04T16:51:08;4.38;;;1.40;;
19965;SDS011;10144;50.874;4.762;2023-06-04T16:53:34;5.25;;;1.50;;
19965;SDS011;10144;50.874;4.762;2023-06-04T16:56:00;2.88;;;1.30;;
19965;SDS011;10144;50.874;4.762;2023-06-04T16:58:29;2.85;;;1.30;;
19965;SDS011;10144;50.874;4.762;2023-06-04T17:00:54;2.65;;;1.60;;
19965;SDS011;10144;50.874;4.762;2023-06-04T17:03:20;2.00;;;1.30;;
19965;SDS011;10144;50.874;4.762;2023-06-04T17:05:46;4.30;;;1.35;;
19965;SDS011;10144;50.874;4.762;2023-06-04T17:08:15;4.53;;;1.55;;
19965;SDS011;10144;50.874;4.762;2023-06-04T17:10:41;2.45;;;1.27;;
19965;SDS011;10144;50.874;4.762;2023-06-04T17:13:07;3.03;;;1.40;;
19965;SDS011;10144;50.874;4.762;2023-06-04T17:15:36;2.13;;;1.40;;
19965;SDS011;10144;50.874;4.762;2023-06-04T17:20:41;4.22;;;1.48;;
19965;SDS011;10144;50.874;4.762;2023-06-04T17:23:23;3.38;;;1.50;;
19965;SDS011;10144;50.874;4.762;2023-06-04T17:25:56;2.65;;;1.40;;
19965;SDS011;10144;50.874;4.762;2023-06-04T17:28:30;4.85;;;1.73;;
19965;SDS011;10144;50.874;4.762;2023-06-04T17:30:55;4.55;;;1.50;;
19965;SDS011;10144;50.874;4.762;2023-06-04T17:33:27;2.08;;;1.50;;
19965;SDS011;10144;50.874;4.762;2023-06-04T17:35:52;2.50;;;1.50;;
19965;SDS011;10144;50.874;4.762;2023-06-04T17:38:20;2.55;;;1.63;;
19965;SDS011;10144;50.874;4.762;2023-06-04T17:40:49;2.40;;;1.42;;
19965;SDS011;10144;50.874;4.762;2023-06-04T17:43:20;2.97;;;1.50;;
19965;SDS011;10144;50.874;4.762;2023-06-04T17:45:49;1.95;;;1.30;;
19965;SDS011;10144;50.874;4.762;2023-06-04T17:48:23;4.28;;;1.45;;
19965;SDS011;10144;50.874;4.762;2023-06-04T17:56:15;2.47;;;1.40;;
19965;SDS011;10144;50.874;4.762;2023-06-04T17:58:42;2.70;;;1.40;;
19965;SDS011;10144;50.874;4.762;2023-06-04T18:01:10;4.22;;;1.40;;
19965;SDS011;10144;50.874;4.762;2023-06-04T18:03:35;2.40;;;1.50;;
19965;SDS011;10144;50.874;4.762;2023-06-04T18:06:04;1.98;;;1.33;;
19965;SDS011;10144;50.874;4.762;2023-06-04T18:08:29;4.03;;;1.38;;
19965;SDS011;10144;50.874;4.762;2023-06-04T18:10:55;3.50;;;1.40;;
19965;SDS011;10144;50.874;4.762;2023-06-04T18:13:23;5.15;;;1.50;;
19965;SDS011;10144;50.874;4.762;2023-06-04T18:15:49;3.45;;;1.50;;
19965;SDS011;10144;50.874;4.762;2023-06-04T18:18:14;2.13;;;1.13;;
19965;SDS011;10144;50.874;4.762;2023-06-04T18:20:40;3.33;;;1.52;;
19965;SDS011;10144;50.874;4.762;2023-06-04T18:23:06;3.88;;;1.60;;
19965;SDS011;10144;50.874;4.762;2023-06-04T18:25:32;4.72;;;1.63;;
19965;SDS011;10144;50.874;4.762;2023-06-04T18:27:57;2.55;;;1.58;;
19965;SDS011;10144;50.874;4.762;2023-06-04T18:30:23;2.85;;;1.40;;
19965;SDS011;10144;50.874;4.762;2023-06-04T18:32:49;3.97;;;1.70;;
19965;SDS011;10144;50.874;4.762;2023-06-04T18:35:14;4.55;;;1.73;;
19965;SDS011;10144;50.874;4.762;2023-06-04T18:37:41;2.72;;;1.40;;
19965;SDS011;10144;50.874;4.762;2023-06-04T18:40:08;2.08;;;1.40;;
19965;SDS011;10144;50.874;4.762;2023-06-04T18:42:34;2.70;;;1.42;;
19965;SDS011;10144;50.874;4.762;2023-06-04T18:45:00;2.15;;;1.38;;
19965;SDS011;10144;50.874;4.762;2023-06-04T18:47:29;4.93;;;1.48;;
19965;SDS011;10144;50.874;4.762;2023-06-04T18:49:54;3.22;;;1.50;;
19965;SDS011;10144;50.874;4.762;2023-06-04T18:52:21;3.85;;;1.50;;
19965;SDS011;10144;50.874;4.762;2023-06-04T18:54:46;3.63;;;1.27;;
19965;SDS011;10144;50.874;4.762;2023-06-04T18:57:12;2.70;;;1.50;;
19965;SDS011;10144;50.874;4.762;2023-06-04T18:59:39;2.65;;;1.45;;
19965;SDS011;10144;50.874;4.762;2023-06-04T19:02:08;4.88;;;1.52;;
19965;SDS011;10144;50.874;4.762;2023-06-04T19:04:34;3.80;;;1.60;;
19965;SDS011;10144;50.874;4.762;2023-06-04T19:07:02;2.83;;;1.60;;
19965;SDS011;10144;50.874;4.762;2023-06-04T19:09:29;4.60;;;1.70;;